sensor_id;sensor_type;location;lat;lon;timestamp;P1;durP1;ratioP1;P2;durP2;ratioP2
17796;SDS011;55596;53.554;9.916;2022-07-22T00:01:50;38.83;;;29.17;;
17796;SDS011;55596;53.554;9.916;2022-07-22T00:04:17;38.73;;;29.30;;
17796;SDS011;55596;53.554;9.916;2022-07-22T00:06:45;41.57;;;30.53;;
17796;SDS011;55596;53.554;9.916;2022-07-22T00:09:15;34.97;;;23.60;;
17796;SDS011;55596;53.554;9.916;2022-07-22T00:11:42;27.80;;;19.50;;
17796;SDS011;55596;53.554;9.916;2022-07-22T00:14:11;24.57;;;17.60;;
17796;SDS011;55596;53.554;9.916;2022-07-22T00:16:40;25.53;;;16.50;;
17796;SDS011;55596;53.554;9.916;2022-07-22T00:19:07;28.07;;;18.27;;
17796;SDS011;55596;53.554;9.916;2022-07-22T00:21:34;27.57;;;17.63;;
17796;SDS011;55596;53.554;9.916;2022-07-22T00:24:03;24.73;;;17.00;;
17796;SDS011;55596;53.554;9.916;2022-07-22T00:26:30;23.83;;;15.10;;
17796;SDS011;55596;53.554;9.916;2022-07-22T00:29:00;22.37;;;14.17;;
17796;SDS011;55596;53.554;9.916;2022-07-22T00:31:29;17.50;;;12.17;;
17796;SDS011;55596;53.554;9.916;2022-07-22T00:33:57;18.33;;;12.10;;
17796;SDS011;55596;53.554;9.916;2022-07-22T00:36:26;14.43;;;11.83;;
17796;SDS011;55596;53.554;9.916;2022-07-22T00:38:53;16.47;;;11.73;;
17796;SDS011;55596;53.554;9.916;2022-07-22T00:41:21;15.90;;;12.20;;
17796;SDS011;55596;53.554;9.916;2022-07-22T00:43:48;15.33;;;11.30;;
17796;SDS011;55596;53.554;9.916;2022-07-22T00:46:25;13.43;;;12.03;;
17796;SDS011;55596;53.554;9.916;2022-07-22T00:48:52;14.80;;;12.17;;
17796;SDS011;55596;53.554;9.916;2022-07-22T00:51:20;16.13;;;11.73;;
17796;SDS011;55596;53.554;9.916;2022-07-22T00:53:48;13.27;;;10.43;;
17796;SDS011;55596;53.554;9.916;2022-07-22T00:56:18;12.03;;;10.43;;
17796;SDS011;55596;53.554;9.916;2022-07-22T00:58:47;15.27;;;11.00;;
17796;SDS011;55596;53.554;9.916;2022-07-22T01:01:15;12.43;;;11.20;;
17796;SDS011;55596;53.554;9.916;2022-07-22T01:03:47;10.43;;;9.43;;
17796;SDS011;55596;53.554;9.916;2022-07-22T01:06:17;10.87;;;9.73;;
17796;SDS011;55596;53.554;9.916;2022-07-22T01:08:44;10.20;;;9.30;;
17796;SDS011;55596;53.554;9.916;2022-07-22T01:11:11;10.30;;;9.40;;
17796;SDS011;55596;53.554;9.916;2022-07-22T01:13:40;14.30;;;12.80;;
17796;SDS011;55596;53.554;9.916;2022-07-22T01:16:10;23.17;;;16.60;;
17796;SDS011;55596;53.554;9.916;2022-07-22T01:18:38;28.73;;;20.43;;
17796;SDS011;55596;53.554;9.916;2022-07-22T01:21:07;24.60;;;18.17;;
17796;SDS011;55596;53.554;9.916;2022-07-22T01:23:36;21.10;;;16.73;;
17796;SDS011;55596;53.554;9.916;2022-07-22T01:26:04;20.67;;;15.63;;
17796;SDS011;55596;53.554;9.916;2022-07-22T01:28:31;18.43;;;13.70;;
17796;SDS011;55596;53.554;9.916;2022-07-22T01:30:59;17.90;;;13.73;;
17796;SDS011;55596;53.554;9.916;2022-07-22T01:33:26;21.13;;;14.67;;
17796;SDS011;55596;53.554;9.916;2022-07-22T01:35:53;22.27;;;14.73;;
17796;SDS011;55596;53.554;9.916;2022-07-22T01:38:21;22.30;;;14.03;;
17796;SDS011;55596;53.554;9.916;2022-07-22T01:40:48;21.67;;;14.80;;
17796;SDS011;55596;53.554;9.916;2022-07-22T01:43:15;21.93;;;14.43;;
17796;SDS011;55596;53.554;9.916;2022-07-22T01:45:46;23.70;;;14.63;;
17796;SDS011;55596;53.554;9.916;2022-07-22T01:48:14;23.27;;;13.47;;
17796;SDS011;55596;53.554;9.916;2022-07-22T01:50:41;28.43;;;14.97;;
17796;SDS011;55596;53.554;9.916;2022-07-22T01:53:10;24.07;;;14.27;;
17796;SDS011;55596;53.554;9.916;2022-07-22T01:55:38;25.83;;;13.70;;
17796;SDS011;55596;53.554;9.916;2022-07-22T01:58:08;24.70;;;11.97;;
17796;SDS011;55596;53.554;9.916;2022-07-22T02:00:35;22.97;;;11.87;;
17796;SDS011;55596;53.554;9.916;2022-07-22T02:03:03;23.73;;;11.83;;
17796;SDS011;55596;53.554;9.916;2022-07-22T02:05:31;26.80;;;11.43;;
17796;SDS011;55596;53.554;9.916;2022-07-22T02:07:59;20.30;;;9.90;;
17796;SDS011;55596;53.554;9.916;2022-07-22T02:10:27;18.27;;;10.00;;
17796;SDS011;55596;53.554;9.916;2022-07-22T02:12:55;18.30;;;9.37;;
17796;SDS011;55596;53.554;9.916;2022-07-22T02:15:23;17.43;;;8.50;;
17796;SDS011;55596;53.554;9.916;2022-07-22T02:17:49;18.90;;;8.50;;
17796;SDS011;55596;53.554;9.916;2022-07-22T02:20:16;17.43;;;7.67;;
17796;SDS011;55596;53.554;9.916;2022-07-22T02:22:43;21.33;;;7.50;;
17796;SDS011;55596;53.554;9.916;2022-07-22T02:25:12;17.93;;;7.73;;
17796;SDS011;55596;53.554;9.916;2022-07-22T02:27:39;19.80;;;7.43;;
17796;SDS011;55596;53.554;9.916;2022-07-22T02:30:09;15.90;;;7.57;;
17796;SDS011;55596;53.554;9.916;2022-07-22T02:32:36;17.57;;;7.90;;
17796;SDS011;55596;53.554;9.916;2022-07-22T02:35:03;12.80;;;7.67;;
17796;SDS011;55596;53.554;9.916;2022-07-22T02:37:31;18.27;;;8.23;;
17796;SDS011;55596;53.554;9.916;2022-07-22T02:39:58;17.00;;;7.97;;
17796;SDS011;55596;53.554;9.916;2022-07-22T02:42:25;23.27;;;8.53;;
17796;SDS011;55596;53.554;9.916;2022-07-22T02:44:52;18.50;;;8.53;;
17796;SDS011;55596;53.554;9.916;2022-07-22T02:47:20;24.00;;;9.50;;
17796;SDS011;55596;53.554;9.916;2022-07-22T02:49:47;21.30;;;9.20;;
17796;SDS011;55596;53.554;9.916;2022-07-22T02:52:14;19.23;;;8.37;;
17796;SDS011;55596;53.554;9.916;2022-07-22T02:54:40;15.33;;;8.67;;
17796;SDS011;55596;53.554;9.916;2022-07-22T02:57:07;18.97;;;9.23;;
17796;SDS011;55596;53.554;9.916;2022-07-22T02:59:34;22.00;;;9.80;;
17796;SDS011;55596;53.554;9.916;2022-07-22T03:02:01;24.30;;;10.63;;
17796;SDS011;55596;53.554;9.916;2022-07-22T03:04:29;21.37;;;9.67;;
17796;SDS011;55596;53.554;9.916;2022-07-22T03:06:56;19.47;;;9.60;;
17796;SDS011;55596;53.554;9.916;2022-07-22T03:09:23;21.10;;;9.80;;
17796;SDS011;55596;53.554;9.916;2022-07-22T03:11:50;23.37;;;9.87;;
17796;SDS011;55596;53.554;9.916;2022-07-22T03:14:17;20.23;;;9.20;;
17796;SDS011;55596;53.554;9.916;2022-07-22T03:16:51;19.43;;;8.33;;
17796;SDS011;55596;53.554;9.916;2022-07-22T03:19:18;18.70;;;8.20;;
17796;SDS011;55596;53.554;9.916;2022-07-22T03:21:46;20.10;;;7.80;;
17796;SDS011;55596;53.554;9.916;2022-07-22T03:24:13;15.93;;;7.07;;
17796;SDS011;55596;53.554;9.916;2022-07-22T03:26:40;16.43;;;6.67;;
17796;SDS011;55596;53.554;9.916;2022-07-22T03:29:07;18.77;;;6.43;;
17796;SDS011;55596;53.554;9.916;2022-07-22T03:31:33;13.70;;;5.43;;
17796;SDS011;55596;53.554;9.916;2022-07-22T03:34:00;14.07;;;5.53;;
17796;SDS011;55596;53.554;9.916;2022-07-22T03:36:27;17.57;;;6.17;;
17796;SDS011;55596;53.554;9.916;2022-07-22T03:38:56;14.07;;;5.07;;
17796;SDS011;55596;53.554;9.916;2022-07-22T03:41:22;13.80;;;4.63;;
17796;SDS011;55596;53.554;9.916;2022-07-22T03:43:49;10.00;;;3.60;;
17796;SDS011;55596;53.554;9.916;2022-07-22T03:46:16;15.87;;;4.07;;
17796;SDS011;55596;53.554;9.916;2022-07-22T03:48:43;18.97;;;4.23;;
17796;SDS011;55596;53.554;9.916;2022-07-22T03:51:10;14.87;;;3.53;;
17796;SDS011;55596;53.554;9.916;2022-07-22T03:53:37;16.17;;;3.80;;
17796;SDS011;55596;53.554;9.916;2022-07-22T03:56:06;13.10;;;3.37;;
17796;SDS011;55596;53.554;9.916;2022-07-22T03:58:33;14.77;;;3.80;;
17796;SDS011;55596;53.554;9.916;2022-07-22T04:01:00;11.40;;;3.53;;
17796;SDS011;55596;53.554;9.916;2022-07-22T04:03:27;13.50;;;3.50;;
17796;SDS011;55596;53.554;9.916;2022-07-22T04:05:53;11.00;;;3.80;;
17796;SDS011;55596;53.554;9.916;2022-07-22T04:08:20;16.13;;;3.67;;
17796;SDS011;55596;53.554;9.916;2022-07-22T04:10:47;11.10;;;3.70;;
17796;SDS011;55596;53.554;9.916;2022-07-22T04:13:15;15.93;;;4.07;;
17796;SDS011;55596;53.554;9.916;2022-07-22T04:15:42;15.73;;;3.60;;
17796;SDS011;55596;53.554;9.916;2022-07-22T04:18:09;22.63;;;4.50;;
17796;SDS011;55596;53.554;9.916;2022-07-22T04:20:36;11.27;;;3.67;;
17796;SDS011;55596;53.554;9.916;2022-07-22T04:23:03;15.13;;;3.60;;
17796;SDS011;55596;53.554;9.916;2022-07-22T04:25:30;13.10;;;3.67;;
17796;SDS011;55596;53.554;9.916;2022-07-22T04:27:57;8.43;;;3.90;;
17796;SDS011;55596;53.554;9.916;2022-07-22T04:30:25;8.90;;;4.10;;
17796;SDS011;55596;53.554;9.916;2022-07-22T04:32:52;10.83;;;3.70;;
17796;SDS011;55596;53.554;9.916;2022-07-22T04:35:19;9.43;;;4.60;;
17796;SDS011;55596;53.554;9.916;2022-07-22T04:37:45;12.73;;;4.60;;
17796;SDS011;55596;53.554;9.916;2022-07-22T04:40:12;12.17;;;5.33;;
17796;SDS011;55596;53.554;9.916;2022-07-22T04:42:39;11.37;;;5.33;;
17796;SDS011;55596;53.554;9.916;2022-07-22T04:45:06;17.07;;;5.40;;
17796;SDS011;55596;53.554;9.916;2022-07-22T04:47:35;12.33;;;5.30;;
17796;SDS011;55596;53.554;9.916;2022-07-22T04:50:02;13.17;;;5.77;;
17796;SDS011;55596;53.554;9.916;2022-07-22T04:52:29;13.70;;;5.47;;
17796;SDS011;55596;53.554;9.916;2022-07-22T04:54:56;15.53;;;5.97;;
17796;SDS011;55596;53.554;9.916;2022-07-22T04:57:24;17.73;;;6.33;;
17796;SDS011;55596;53.554;9.916;2022-07-22T04:59:52;13.23;;;5.30;;
17796;SDS011;55596;53.554;9.916;2022-07-22T05:02:19;17.60;;;6.00;;
17796;SDS011;55596;53.554;9.916;2022-07-22T05:04:48;15.80;;;5.47;;
17796;SDS011;55596;53.554;9.916;2022-07-22T05:07:15;17.30;;;5.73;;
17796;SDS011;55596;53.554;9.916;2022-07-22T05:09:42;14.30;;;5.50;;
17796;SDS011;55596;53.554;9.916;2022-07-22T05:12:08;15.47;;;5.40;;
17796;SDS011;55596;53.554;9.916;2022-07-22T05:14:35;15.57;;;5.53;;
17796;SDS011;55596;53.554;9.916;2022-07-22T05:17:02;19.83;;;5.60;;
17796;SDS011;55596;53.554;9.916;2022-07-22T05:19:29;16.37;;;5.77;;
17796;SDS011;55596;53.554;9.916;2022-07-22T05:21:57;15.80;;;5.90;;
17796;SDS011;55596;53.554;9.916;2022-07-22T05:24:24;17.87;;;5.20;;
17796;SDS011;55596;53.554;9.916;2022-07-22T05:26:51;10.23;;;4.97;;
17796;SDS011;55596;53.554;9.916;2022-07-22T05:29:18;20.20;;;5.50;;
17796;SDS011;55596;53.554;9.916;2022-07-22T05:31:45;16.17;;;5.10;;
17796;SDS011;55596;53.554;9.916;2022-07-22T05:34:12;19.13;;;5.33;;
17796;SDS011;55596;53.554;9.916;2022-07-22T05:36:39;19.57;;;5.00;;
17796;SDS011;55596;53.554;9.916;2022-07-22T05:39:07;19.67;;;4.73;;
17796;SDS011;55596;53.554;9.916;2022-07-22T05:41:34;17.00;;;4.90;;
17796;SDS011;55596;53.554;9.916;2022-07-22T05:44:02;18.63;;;4.90;;
17796;SDS011;55596;53.554;9.916;2022-07-22T05:46:30;22.40;;;4.40;;
17796;SDS011;55596;53.554;9.916;2022-07-22T05:48:57;13.80;;;4.17;;
17796;SDS011;55596;53.554;9.916;2022-07-22T05:51:24;17.23;;;4.73;;
17796;SDS011;55596;53.554;9.916;2022-07-22T05:53:50;9.67;;;4.17;;
17796;SDS011;55596;53.554;9.916;2022-07-22T05:56:19;13.73;;;3.67;;
17796;SDS011;55596;53.554;9.916;2022-07-22T05:58:46;11.20;;;3.87;;
17796;SDS011;55596;53.554;9.916;2022-07-22T06:01:13;16.13;;;4.53;;
17796;SDS011;55596;53.554;9.916;2022-07-22T06:03:39;16.83;;;4.53;;
17796;SDS011;55596;53.554;9.916;2022-07-22T06:06:07;19.37;;;5.13;;
17796;SDS011;55596;53.554;9.916;2022-07-22T06:08:34;16.90;;;5.30;;
17796;SDS011;55596;53.554;9.916;2022-07-22T06:11:02;14.50;;;4.77;;
17796;SDS011;55596;53.554;9.916;2022-07-22T06:13:30;13.83;;;4.63;;
17796;SDS011;55596;53.554;9.916;2022-07-22T06:15:58;20.67;;;4.70;;
17796;SDS011;55596;53.554;9.916;2022-07-22T06:18:25;19.80;;;5.40;;
17796;SDS011;55596;53.554;9.916;2022-07-22T06:20:52;17.27;;;5.20;;
17796;SDS011;55596;53.554;9.916;2022-07-22T06:23:19;20.67;;;4.80;;
17796;SDS011;55596;53.554;9.916;2022-07-22T06:25:46;16.37;;;5.10;;
17796;SDS011;55596;53.554;9.916;2022-07-22T06:28:13;21.40;;;5.33;;
17796;SDS011;55596;53.554;9.916;2022-07-22T06:30:41;20.87;;;5.50;;
17796;SDS011;55596;53.554;9.916;2022-07-22T06:33:08;17.47;;;5.33;;
17796;SDS011;55596;53.554;9.916;2022-07-22T06:35:37;17.97;;;4.53;;
17796;SDS011;55596;53.554;9.916;2022-07-22T06:38:05;21.03;;;4.20;;
17796;SDS011;55596;53.554;9.916;2022-07-22T06:40:33;13.73;;;3.93;;
17796;SDS011;55596;53.554;9.916;2022-07-22T06:43:00;14.50;;;3.80;;
17796;SDS011;55596;53.554;9.916;2022-07-22T06:45:27;17.17;;;3.70;;
17796;SDS011;55596;53.554;9.916;2022-07-22T06:47:56;12.13;;;4.27;;
17796;SDS011;55596;53.554;9.916;2022-07-22T06:50:23;15.30;;;4.40;;
17796;SDS011;55596;53.554;9.916;2022-07-22T06:52:50;12.53;;;3.27;;
17796;SDS011;55596;53.554;9.916;2022-07-22T06:55:17;11.83;;;3.30;;
17796;SDS011;55596;53.554;9.916;2022-07-22T06:57:44;16.90;;;3.63;;
17796;SDS011;55596;53.554;9.916;2022-07-22T07:00:11;11.80;;;2.73;;
17796;SDS011;55596;53.554;9.916;2022-07-22T07:02:39;14.10;;;3.40;;
17796;SDS011;55596;53.554;9.916;2022-07-22T07:05:08;11.23;;;3.40;;
17796;SDS011;55596;53.554;9.916;2022-07-22T07:07:35;12.57;;;3.00;;
17796;SDS011;55596;53.554;9.916;2022-07-22T07:10:02;13.50;;;3.60;;
17796;SDS011;55596;53.554;9.916;2022-07-22T07:12:29;12.03;;;3.33;;
17796;SDS011;55596;53.554;9.916;2022-07-22T07:14:56;11.37;;;3.07;;
17796;SDS011;55596;53.554;9.916;2022-07-22T07:17:23;16.77;;;3.33;;
17796;SDS011;55596;53.554;9.916;2022-07-22T07:19:50;15.23;;;3.37;;
17796;SDS011;55596;53.554;9.916;2022-07-22T07:22:18;15.93;;;3.20;;
17796;SDS011;55596;53.554;9.916;2022-07-22T07:24:47;11.67;;;2.70;;
17796;SDS011;55596;53.554;9.916;2022-07-22T07:27:14;13.00;;;3.00;;
17796;SDS011;55596;53.554;9.916;2022-07-22T07:29:44;11.70;;;3.03;;
17796;SDS011;55596;53.554;9.916;2022-07-22T07:32:14;15.70;;;3.30;;
17796;SDS011;55596;53.554;9.916;2022-07-22T07:34:42;13.70;;;2.73;;
17796;SDS011;55596;53.554;9.916;2022-07-22T07:37:09;15.20;;;3.20;;
17796;SDS011;55596;53.554;9.916;2022-07-22T07:39:38;11.17;;;3.40;;
17796;SDS011;55596;53.554;9.916;2022-07-22T07:42:05;14.07;;;2.83;;
17796;SDS011;55596;53.554;9.916;2022-07-22T07:44:32;16.33;;;3.03;;
17796;SDS011;55596;53.554;9.916;2022-07-22T07:46:58;16.13;;;3.27;;
17796;SDS011;55596;53.554;9.916;2022-07-22T07:49:25;15.23;;;2.97;;
17796;SDS011;55596;53.554;9.916;2022-07-22T07:51:52;10.60;;;2.93;;
17796;SDS011;55596;53.554;9.916;2022-07-22T07:54:19;17.27;;;2.87;;
17796;SDS011;55596;53.554;9.916;2022-07-22T07:56:48;16.77;;;3.20;;
17796;SDS011;55596;53.554;9.916;2022-07-22T07:59:15;11.80;;;2.93;;
17796;SDS011;55596;53.554;9.916;2022-07-22T08:01:42;14.30;;;3.10;;
17796;SDS011;55596;53.554;9.916;2022-07-22T08:04:09;12.77;;;2.73;;
17796;SDS011;55596;53.554;9.916;2022-07-22T08:06:35;10.20;;;2.50;;
17796;SDS011;55596;53.554;9.916;2022-07-22T08:09:03;12.27;;;2.67;;
17796;SDS011;55596;53.554;9.916;2022-07-22T08:11:29;10.50;;;2.63;;
17796;SDS011;55596;53.554;9.916;2022-07-22T08:13:58;13.40;;;3.07;;
17796;SDS011;55596;53.554;9.916;2022-07-22T08:16:25;10.33;;;2.67;;
17796;SDS011;55596;53.554;9.916;2022-07-22T08:18:52;8.57;;;2.60;;
17796;SDS011;55596;53.554;9.916;2022-07-22T08:21:18;11.30;;;2.50;;
17796;SDS011;55596;53.554;9.916;2022-07-22T08:23:45;21.27;;;2.77;;
17796;SDS011;55596;53.554;9.916;2022-07-22T08:26:13;11.80;;;2.87;;
17796;SDS011;55596;53.554;9.916;2022-07-22T08:28:39;12.30;;;2.77;;
17796;SDS011;55596;53.554;9.916;2022-07-22T08:31:08;10.83;;;2.30;;
17796;SDS011;55596;53.554;9.916;2022-07-22T08:33:35;13.67;;;2.60;;
17796;SDS011;55596;53.554;9.916;2022-07-22T08:36:02;9.30;;;2.13;;
17796;SDS011;55596;53.554;9.916;2022-07-22T08:38:29;12.53;;;2.33;;
17796;SDS011;55596;53.554;9.916;2022-07-22T08:40:56;12.10;;;2.50;;
17796;SDS011;55596;53.554;9.916;2022-07-22T08:43:23;13.17;;;2.70;;
17796;SDS011;55596;53.554;9.916;2022-07-22T08:45:51;12.00;;;2.30;;
17796;SDS011;55596;53.554;9.916;2022-07-22T08:48:20;12.50;;;2.30;;
17796;SDS011;55596;53.554;9.916;2022-07-22T08:50:47;9.73;;;2.30;;
17796;SDS011;55596;53.554;9.916;2022-07-22T08:53:14;10.87;;;2.57;;
17796;SDS011;55596;53.554;9.916;2022-07-22T08:55:42;8.37;;;2.10;;
17796;SDS011;55596;53.554;9.916;2022-07-22T08:58:09;11.10;;;2.30;;
17796;SDS011;55596;53.554;9.916;2022-07-22T09:00:36;10.43;;;2.33;;
17796;SDS011;55596;53.554;9.916;2022-07-22T09:03:16;8.83;;;1.83;;
17796;SDS011;55596;53.554;9.916;2022-07-22T09:05:51;7.40;;;1.77;;
17796;SDS011;55596;53.554;9.916;2022-07-22T09:08:19;8.87;;;1.60;;
17796;SDS011;55596;53.554;9.916;2022-07-22T09:10:46;7.00;;;1.77;;
17796;SDS011;55596;53.554;9.916;2022-07-22T09:13:15;8.37;;;2.17;;
17796;SDS011;55596;53.554;9.916;2022-07-22T09:15:45;8.70;;;2.07;;
17796;SDS011;55596;53.554;9.916;2022-07-22T09:18:14;7.80;;;2.07;;
17796;SDS011;55596;53.554;9.916;2022-07-22T09:20:42;8.20;;;1.90;;
17796;SDS011;55596;53.554;9.916;2022-07-22T09:23:12;11.50;;;1.90;;
17796;SDS011;55596;53.554;9.916;2022-07-22T09:25:42;10.23;;;2.10;;
17796;SDS011;55596;53.554;9.916;2022-07-22T09:28:11;9.03;;;2.27;;
17796;SDS011;55596;53.554;9.916;2022-07-22T09:30:45;8.37;;;2.10;;
17796;SDS011;55596;53.554;9.916;2022-07-22T09:33:13;11.27;;;2.27;;
17796;SDS011;55596;53.554;9.916;2022-07-22T09:35:41;8.93;;;1.93;;
17796;SDS011;55596;53.554;9.916;2022-07-22T09:38:09;5.53;;;1.57;;
17796;SDS011;55596;53.554;9.916;2022-07-22T09:40:39;13.47;;;2.20;;
17796;SDS011;55596;53.554;9.916;2022-07-22T09:43:08;8.13;;;1.83;;
17796;SDS011;55596;53.554;9.916;2022-07-22T09:45:43;5.57;;;2.07;;
17796;SDS011;55596;53.554;9.916;2022-07-22T09:48:12;7.63;;;1.97;;
17796;SDS011;55596;53.554;9.916;2022-07-22T09:50:39;8.40;;;2.20;;
17796;SDS011;55596;53.554;9.916;2022-07-22T09:53:07;6.83;;;1.80;;
17796;SDS011;55596;53.554;9.916;2022-07-22T09:55:35;6.87;;;2.00;;
17796;SDS011;55596;53.554;9.916;2022-07-22T09:58:05;9.60;;;1.87;;
17796;SDS011;55596;53.554;9.916;2022-07-22T10:00:34;8.93;;;1.77;;
17796;SDS011;55596;53.554;9.916;2022-07-22T10:03:03;9.13;;;2.03;;
17796;SDS011;55596;53.554;9.916;2022-07-22T10:05:34;9.17;;;2.00;;
17796;SDS011;55596;53.554;9.916;2022-07-22T10:08:07;6.60;;;1.50;;
17796;SDS011;55596;53.554;9.916;2022-07-22T10:10:40;6.27;;;1.60;;
17796;SDS011;55596;53.554;9.916;2022-07-22T10:13:07;9.40;;;2.10;;
17796;SDS011;55596;53.554;9.916;2022-07-22T10:15:35;7.03;;;1.70;;
17796;SDS011;55596;53.554;9.916;2022-07-22T10:18:05;7.47;;;1.70;;
17796;SDS011;55596;53.554;9.916;2022-07-22T10:20:33;7.20;;;1.67;;
17796;SDS011;55596;53.554;9.916;2022-07-22T10:23:02;6.97;;;1.90;;
17796;SDS011;55596;53.554;9.916;2022-07-22T10:25:31;5.13;;;1.50;;
17796;SDS011;55596;53.554;9.916;2022-07-22T10:28:21;9.47;;;1.90;;
17796;SDS011;55596;53.554;9.916;2022-07-22T10:30:50;7.47;;;1.90;;
17796;SDS011;55596;53.554;9.916;2022-07-22T10:33:17;6.30;;;1.50;;
17796;SDS011;55596;53.554;9.916;2022-07-22T10:35:52;8.00;;;1.50;;
17796;SDS011;55596;53.554;9.916;2022-07-22T10:38:21;10.17;;;1.93;;
17796;SDS011;55596;53.554;9.916;2022-07-22T10:40:49;6.67;;;1.40;;
17796;SDS011;55596;53.554;9.916;2022-07-22T10:43:20;9.47;;;2.20;;
17796;SDS011;55596;53.554;9.916;2022-07-22T10:45:50;5.90;;;1.93;;
17796;SDS011;55596;53.554;9.916;2022-07-22T10:48:20;4.93;;;1.60;;
17796;SDS011;55596;53.554;9.916;2022-07-22T10:50:53;8.17;;;1.93;;
17796;SDS011;55596;53.554;9.916;2022-07-22T10:53:45;6.40;;;1.30;;
17796;SDS011;55596;53.554;9.916;2022-07-22T10:56:19;15.10;;;1.80;;
17796;SDS011;55596;53.554;9.916;2022-07-22T10:58:57;7.03;;;1.70;;
17796;SDS011;55596;53.554;9.916;2022-07-22T11:01:26;5.57;;;1.80;;
17796;SDS011;55596;53.554;9.916;2022-07-22T11:03:55;6.53;;;1.90;;
17796;SDS011;55596;53.554;9.916;2022-07-22T11:06:24;5.63;;;1.60;;
17796;SDS011;55596;53.554;9.916;2022-07-22T11:08:55;7.37;;;1.43;;
17796;SDS011;55596;53.554;9.916;2022-07-22T11:11:39;5.20;;;1.37;;
17796;SDS011;55596;53.554;9.916;2022-07-22T11:14:19;6.13;;;1.67;;
17796;SDS011;55596;53.554;9.916;2022-07-22T11:16:49;7.40;;;1.63;;
17796;SDS011;55596;53.554;9.916;2022-07-22T11:19:21;5.87;;;1.57;;
17796;SDS011;55596;53.554;9.916;2022-07-22T11:21:50;7.73;;;2.07;;
17796;SDS011;55596;53.554;9.916;2022-07-22T11:24:19;4.17;;;1.40;;
17796;SDS011;55596;53.554;9.916;2022-07-22T11:26:47;4.67;;;1.40;;
17796;SDS011;55596;53.554;9.916;2022-07-22T11:29:16;5.33;;;1.50;;
17796;SDS011;55596;53.554;9.916;2022-07-22T11:31:46;7.07;;;1.60;;
17796;SDS011;55596;53.554;9.916;2022-07-22T11:34:14;6.03;;;1.60;;
17796;SDS011;55596;53.554;9.916;2022-07-22T11:36:45;13.93;;;1.77;;
17796;SDS011;55596;53.554;9.916;2022-07-22T11:39:14;6.00;;;1.60;;
17796;SDS011;55596;53.554;9.916;2022-07-22T11:41:46;8.60;;;1.90;;
17796;SDS011;55596;53.554;9.916;2022-07-22T11:44:17;8.50;;;1.87;;
17796;SDS011;55596;53.554;9.916;2022-07-22T11:46:46;9.53;;;2.13;;
17796;SDS011;55596;53.554;9.916;2022-07-22T11:49:14;6.80;;;1.70;;
17796;SDS011;55596;53.554;9.916;2022-07-22T11:51:41;7.50;;;1.70;;
17796;SDS011;55596;53.554;9.916;2022-07-22T11:54:09;6.33;;;1.57;;
17796;SDS011;55596;53.554;9.916;2022-07-22T11:56:36;7.80;;;1.83;;
17796;SDS011;55596;53.554;9.916;2022-07-22T11:59:03;3.53;;;1.23;;
17796;SDS011;55596;53.554;9.916;2022-07-22T12:01:32;6.83;;;1.57;;
17796;SDS011;55596;53.554;9.916;2022-07-22T12:04:02;10.60;;;1.87;;
17796;SDS011;55596;53.554;9.916;2022-07-22T12:06:31;9.20;;;1.83;;
17796;SDS011;55596;53.554;9.916;2022-07-22T12:09:05;7.47;;;1.40;;
17796;SDS011;55596;53.554;9.916;2022-07-22T12:11:34;10.87;;;1.73;;
17796;SDS011;55596;53.554;9.916;2022-07-22T12:14:06;7.03;;;1.50;;
17796;SDS011;55596;53.554;9.916;2022-07-22T12:16:35;11.80;;;1.90;;
17796;SDS011;55596;53.554;9.916;2022-07-22T12:19:06;8.13;;;1.70;;
17796;SDS011;55596;53.554;9.916;2022-07-22T12:21:35;6.87;;;1.47;;
17796;SDS011;55596;53.554;9.916;2022-07-22T12:24:03;9.43;;;1.60;;
17796;SDS011;55596;53.554;9.916;2022-07-22T12:29:21;7.23;;;1.57;;
17796;SDS011;55596;53.554;9.916;2022-07-22T12:31:50;9.20;;;1.70;;
17796;SDS011;55596;53.554;9.916;2022-07-22T12:34:37;7.90;;;1.70;;
17796;SDS011;55596;53.554;9.916;2022-07-22T12:37:13;8.30;;;1.58;;
17796;SDS011;55596;53.554;9.916;2022-07-22T12:39:52;4.55;;;1.35;;
17796;SDS011;55596;53.554;9.916;2022-07-22T12:42:24;6.55;;;1.50;;
17796;SDS011;55596;53.554;9.916;2022-07-22T12:44:52;6.47;;;1.40;;
17796;SDS011;55596;53.554;9.916;2022-07-22T12:47:41;5.88;;;1.60;;
17796;SDS011;55596;53.554;9.916;2022-07-22T12:50:22;4.53;;;1.38;;
17796;SDS011;55596;53.554;9.916;2022-07-22T12:52:52;7.88;;;1.60;;
17796;SDS011;55596;53.554;9.916;2022-07-22T12:55:20;7.55;;;1.40;;
17796;SDS011;55596;53.554;9.916;2022-07-22T12:57:48;5.63;;;1.42;;
17796;SDS011;55596;53.554;9.916;2022-07-22T13:00:16;5.22;;;1.17;;
17796;SDS011;55596;53.554;9.916;2022-07-22T13:02:44;4.40;;;1.30;;
17796;SDS011;55596;53.554;9.916;2022-07-22T13:05:15;6.07;;;1.27;;
17796;SDS011;55596;53.554;9.916;2022-07-22T13:07:44;4.43;;;1.20;;
17796;SDS011;55596;53.554;9.916;2022-07-22T13:10:11;4.43;;;1.40;;
17796;SDS011;55596;53.554;9.916;2022-07-22T13:12:39;7.88;;;1.83;;
17796;SDS011;55596;53.554;9.916;2022-07-22T13:15:07;6.05;;;1.45;;
17796;SDS011;55596;53.554;9.916;2022-07-22T13:17:35;5.57;;;1.30;;
17796;SDS011;55596;53.554;9.916;2022-07-22T13:20:03;8.07;;;1.33;;
17796;SDS011;55596;53.554;9.916;2022-07-22T13:22:30;6.88;;;1.27;;
17796;SDS011;55596;53.554;9.916;2022-07-22T13:24:59;10.65;;;1.67;;
17796;SDS011;55596;53.554;9.916;2022-07-22T13:27:26;6.82;;;1.17;;
17796;SDS011;55596;53.554;9.916;2022-07-22T13:29:53;5.10;;;1.50;;
17796;SDS011;55596;53.554;9.916;2022-07-22T13:32:21;3.38;;;1.30;;
17796;SDS011;55596;53.554;9.916;2022-07-22T13:34:48;6.45;;;1.88;;
17796;SDS011;55596;53.554;9.916;2022-07-22T13:37:16;4.93;;;1.33;;
17796;SDS011;55596;53.554;9.916;2022-07-22T13:39:43;7.88;;;1.65;;
17796;SDS011;55596;53.554;9.916;2022-07-22T13:42:14;6.10;;;1.25;;
17796;SDS011;55596;53.554;9.916;2022-07-22T13:44:43;4.47;;;1.60;;
17796;SDS011;55596;53.554;9.916;2022-07-22T13:47:10;6.50;;;1.58;;
17796;SDS011;55596;53.554;9.916;2022-07-22T13:49:38;6.47;;;1.40;;
17796;SDS011;55596;53.554;9.916;2022-07-22T13:52:05;4.70;;;1.42;;
17796;SDS011;55596;53.554;9.916;2022-07-22T13:54:33;3.83;;;1.20;;
17796;SDS011;55596;53.554;9.916;2022-07-22T13:57:00;4.28;;;1.20;;
17796;SDS011;55596;53.554;9.916;2022-07-22T13:59:29;4.32;;;1.20;;
17796;SDS011;55596;53.554;9.916;2022-07-22T14:01:57;3.53;;;1.20;;
17796;SDS011;55596;53.554;9.916;2022-07-22T14:04:25;5.82;;;1.40;;
17796;SDS011;55596;53.554;9.916;2022-07-22T14:06:52;4.93;;;1.10;;
17796;SDS011;55596;53.554;9.916;2022-07-22T14:09:19;4.97;;;1.30;;
17796;SDS011;55596;53.554;9.916;2022-07-22T14:11:46;7.32;;;1.73;;
17796;SDS011;55596;53.554;9.916;2022-07-22T14:14:13;5.43;;;1.48;;
17796;SDS011;55596;53.554;9.916;2022-07-22T14:16:41;5.80;;;1.50;;
17796;SDS011;55596;53.554;9.916;2022-07-22T14:19:09;6.18;;;1.55;;
17796;SDS011;55596;53.554;9.916;2022-07-22T14:21:37;9.82;;;1.55;;
17796;SDS011;55596;53.554;9.916;2022-07-22T14:24:05;8.18;;;1.55;;
17796;SDS011;55596;53.554;9.916;2022-07-22T14:26:33;7.25;;;1.60;;
17796;SDS011;55596;53.554;9.916;2022-07-22T14:29:00;3.95;;;1.38;;
17796;SDS011;55596;53.554;9.916;2022-07-22T14:31:27;7.10;;;1.30;;
17796;SDS011;55596;53.554;9.916;2022-07-22T14:33:55;7.03;;;1.00;;
17796;SDS011;55596;53.554;9.916;2022-07-22T14:36:22;5.55;;;1.20;;
17796;SDS011;55596;53.554;9.916;2022-07-22T14:38:50;5.55;;;1.35;;
17796;SDS011;55596;53.554;9.916;2022-07-22T14:41:18;4.32;;;1.40;;
17796;SDS011;55596;53.554;9.916;2022-07-22T14:43:46;6.50;;;1.30;;
17796;SDS011;55596;53.554;9.916;2022-07-22T14:46:13;8.48;;;1.40;;
17796;SDS011;55596;53.554;9.916;2022-07-22T14:48:41;7.38;;;1.67;;